Calgary (YYC/CYYC)

Information

Location
Calgary, AB, Canada
Local Time
18:08 / 6:08 pm
GMT Time
00:08 / 12:08 am
Gates
No FAA reported delays
METAR CYYC 260000Z 05009KT 5SM -SHSN SCT016 OVC028 00/M03 A2986 RMK SF3SC5 TCU EMBD SLP161
TAF TAF CYYC 252339Z 2600/2624 04010KT P6SM SCT015 OVC025 TEMPO 2600/2606 5SM -SN BR BKN015 OVC025 BECMG 2604/2606 12006KT FM260600 12006KT 4SM BR OVC015 TEMPO 2606/2614 1SM BR VV004 FM261400 14008KT P6SM -SHSN OVC006 FM261800 12012KT P6SM -SHSN OVC012 FM262200 10010KT P6SM -SHRASN OVC015 RMK NXT FCST BY 260300Z